Time;durP1;ratioP1;P1;durP2;ratioP2;P2;SDS_P1;SDS_P2;PMS_P1;PMS_P2;Temp;Humidity;BMP_temperature;BMP_pressure;BME280_temperature;BME280_humidity;BME280_pressure;Samples;Min_cycle;Max_cycle;Signal;HPM_P1;HPM_P2
2022/08/03 00:02:17;;;;;;;;;;;;;;;-145.18;100.00;46660.41;5031669;28;19967;-78
2022/08/03 00:04:43;;;;;;;;;;;;;;;-145.18;100.00;46660.41;5031754;28;19917;-77
2022/08/03 00:07:08;;;;;;;;;;;;;;;-145.18;100.00;46660.41;5031527;28;20286;-78
2022/08/03 00:09:33;;;;;;;;;;;;;;;-145.18;100.00;46660.41;5031855;28;19917;-78
2022/08/03 00:11:58;;;;;;;;;;;;;;;-145.18;100.00;46658.44;5031496;28;19917;-78
2022/08/03 00:14:23;;;;;;;;;;;;;;;-145.18;100.00;46656.50;5031780;28;20185;-77
2022/08/03 00:16:49;;;;;;;;;;;;;;;-145.18;100.00;46660.41;5013766;28;19917;-78
2022/08/03 00:19:14;;;;;;;;;;;;;;;-145.18;100.00;46660.41;5031699;28;20028;-77
2022/08/03 00:21:40;;;;;;;;;;;;;;;-145.18;100.00;46656.50;5031639;28;20002;-77
2022/08/03 00:24:05;;;;;;;;;;;;;;;-145.18;100.00;46660.41;5031634;28;19921;-78
2022/08/03 00:26:31;;;;;;;;;;;;;;;-145.18;100.00;46660.41;5031355;28;20377;-78
2022/08/03 00:28:56;;;;;;;;;;;;;;;-145.18;100.00;46660.41;5031618;28;20340;-77
2022/08/03 00:31:21;;;;;;;;;;;;;;;-145.18;100.00;46660.41;5031044;28;19928;-77
2022/08/03 00:33:46;;;;;;;;;;;;;;;-145.18;100.00;46656.50;5031527;28;20134;-77
2022/08/03 00:36:11;;;;;;;;;;;;;;;-145.18;100.00;46658.44;5030682;28;20032;-78
2022/08/03 00:38:37;;;;;;;;;;;;;;;-145.18;100.00;46658.44;5026954;28;19925;-78
2022/08/03 00:41:02;;;;;;;;;;;;;;;-145.18;100.00;46658.44;5011873;28;20392;-78
2022/08/03 00:43:27;;;;;;;;;;;;;;;-145.18;100.00;46660.41;5010976;28;19913;-78
2022/08/03 00:45:53;;;;;;;;;;;;;;;-145.18;100.00;46654.53;5011881;28;19917;-78
2022/08/03 00:48:19;;;;;;;;;;;;;;;-145.18;100.00;46654.53;5011477;28;19909;-78
2022/08/03 00:50:44;;;;;;;;;;;;;;;-145.18;100.00;46654.53;5011508;28;20384;-78
2022/08/03 00:53:13;;;;;;;;;;;;;;;-145.18;100.00;46656.50;5011029;28;20535;-78
2022/08/03 00:55:38;;;;;;;;;;;;;;;-145.18;100.00;46652.59;5011155;28;19913;-78
2022/08/03 00:58:05;;;;;;;;;;;;;;;-145.18;100.00;46652.59;5011243;28;20381;-79
2022/08/03 01:00:31;;;;;;;;;;;;;;;-145.18;100.00;46652.59;4993747;28;19920;-79
2022/08/03 01:02:57;;;;;;;;;;;;;;;-145.18;100.00;46652.59;5010789;28;19918;-78
2022/08/03 01:05:22;;;;;;;;;;;;;;;-145.18;100.00;46650.63;5010514;28;19928;-78
2022/08/03 01:08:06;;;;;;;;;;;;;;;-145.18;100.00;46642.81;5010989;28;20370;-78
2022/08/03 01:10:46;;;;;;;;;;;;;;;-145.18;100.00;46652.59;5011151;28;19914;-78
2022/08/03 01:13:11;;;;;;;;;;;;;;;-145.18;100.00;46652.59;5010857;28;19920;-79
2022/08/03 01:15:41;;;;;;;;;;;;;;;-145.18;100.00;46656.50;5011277;28;19917;-79
2022/08/03 01:18:12;;;;;;;;;;;;;;;-145.18;100.00;46640.88;5010571;28;19913;-79
2022/08/03 01:20:39;;;;;;;;;;;;;;;-145.18;100.00;46642.81;5011399;28;19917;-79
2022/08/03 01:23:27;;;;;;;;;;;;;;;-145.18;100.00;46640.88;5010760;28;20383;-79
2022/08/03 01:26:04;;;;;;;;;;;;;;;-145.18;100.00;46640.88;5011046;28;19920;-79
2022/08/03 01:28:49;;;;;;;;;;;;;;;-145.18;100.00;46640.88;5010863;28;19921;-79
2022/08/03 01:31:17;;;;;;;;;;;;;;;-145.18;100.00;46638.91;5010569;28;20036;-79
2022/08/03 01:33:45;;;;;;;;;;;;;;;-145.18;100.00;46642.81;5011347;28;19913;-79
2022/08/03 01:36:12;;;;;;;;;;;;;;;-145.18;100.00;46636.94;5011169;28;20305;-79
2022/08/03 01:38:43;;;;;;;;;;;;;;;-145.18;100.00;46636.94;5010610;28;19913;-79
2022/08/03 01:41:11;;;;;;;;;;;;;;;-145.18;100.00;46652.59;5011151;28;19964;-79
2022/08/03 01:43:38;;;;;;;;;;;;;;;-145.18;100.00;46638.91;5010521;28;20421;-79
2022/08/03 01:46:04;;;;;;;;;;;;;;;-145.18;100.00;46638.91;5010647;28;20442;-79
2022/08/03 01:48:30;;;;;;;;;;;;;;;-145.18;100.00;46636.94;5008215;28;19973;-79
2022/08/03 01:50:56;;;;;;;;;;;;;;;-145.18;100.00;46640.88;4991305;28;19917;-79
2022/08/03 01:53:22;;;;;;;;;;;;;;;-145.18;100.00;46650.63;4998758;28;20287;-78
2022/08/03 01:55:48;;;;;;;;;;;;;;;-145.18;100.00;46640.88;5010438;28;20307;-78
2022/08/03 01:58:14;;;;;;;;;;;;;;;-145.18;100.00;46640.88;5009962;28;19913;-78
2022/08/03 02:03:15;;;;;;;;;;;;;;;-145.18;100.00;46652.59;5027345;23;19929;-79
2022/08/03 02:05:42;;;;;;;;;;;;;;;-145.18;100.00;46650.63;5001951;28;19921;-79
2022/08/03 02:08:09;;;;;;;;;;;;;;;-145.18;100.00;46650.63;5014029;28;20298;-78
2022/08/03 02:10:36;;;;;;;;;;;;;;;-145.18;100.00;46652.59;5013624;28;19913;-79
2022/08/03 02:13:02;;;;;;;;;;;;;;;-145.18;100.00;46642.81;5013721;28;19990;-79
2022/08/03 02:15:29;;;;;;;;;;;;;;;-145.18;100.00;46650.63;5014011;28;19913;-79
2022/08/03 02:17:55;;;;;;;;;;;;;;;-145.18;100.00;46650.63;5013372;28;19917;-79
2022/08/03 02:20:20;;;;;;;;;;;;;;;-145.18;100.00;46642.81;5014441;28;19925;-79
2022/08/03 02:22:46;;;;;;;;;;;;;;;-145.18;100.00;46650.63;5014086;28;20301;-80
2022/08/03 02:25:12;;;;;;;;;;;;;;;-145.18;100.00;46650.63;5014249;28;20004;-80
2022/08/03 02:27:39;;;;;;;;;;;;;;;-145.18;100.00;46642.81;5013736;28;19981;-80
2022/08/03 02:30:06;;;;;;;;;;;;;;;-145.18;100.00;46652.59;5014274;28;20367;-80
2022/08/03 02:32:34;;;;;;;;;;;;;;;-145.18;100.00;46650.63;5013770;28;19913;-79
2022/08/03 02:35:01;;;;;;;;;;;;;;;-145.18;100.00;46650.63;5014077;28;20312;-80
2022/08/03 02:37:29;;;;;;;;;;;;;;;-145.18;100.00;46654.53;5013591;28;20361;-81
2022/08/03 02:39:58;;;;;;;;;;;;;;;-145.18;100.00;46656.50;5013587;28;19917;-81
2022/08/03 02:42:24;;;;;;;;;;;;;;;-145.18;100.00;46640.88;5013731;28;19976;-80
2022/08/03 02:44:51;;;;;;;;;;;;;;;-145.18;100.00;46652.59;5013851;28;19928;-80
2022/08/03 02:47:19;;;;;;;;;;;;;;;-145.18;100.00;46654.53;5013663;28;19968;-80
2022/08/03 02:49:46;;;;;;;;;;;;;;;-145.18;100.00;46656.50;5013636;28;19913;-80
2022/08/03 02:52:12;;;;;;;;;;;;;;;-145.18;100.00;46654.53;5013109;28;19959;-80
2022/08/03 02:54:37;;;;;;;;;;;;;;;-145.18;100.00;46650.63;5013882;28;20342;-80
2022/08/03 02:57:05;;;;;;;;;;;;;;;-145.18;100.00;46652.59;5013098;28;19914;-79
2022/08/03 02:59:31;;;;;;;;;;;;;;;-145.18;100.00;46656.50;5013631;28;19921;-79
2022/08/03 03:01:57;;;;;;;;;;;;;;;-145.18;100.00;46656.50;5012598;28;19916;-79
2022/08/03 03:04:22;;;;;;;;;;;;;;;-145.18;100.00;46650.63;5012921;28;19953;-79
2022/08/03 03:06:49;;;;;;;;;;;;;;;-145.18;100.00;46656.50;5012935;28;19961;-79
2022/08/03 03:09:15;;;;;;;;;;;;;;;-145.18;100.00;46650.63;5013408;28;20300;-79
2022/08/03 03:11:41;;;;;;;;;;;;;;;-145.18;100.00;46652.59;5012857;28;19914;-79
2022/08/03 03:14:08;;;;;;;;;;;;;;;-145.18;100.00;46656.50;5012837;28;19977;-79
2022/08/03 03:16:35;;;;;;;;;;;;;;;-145.18;100.00;46652.59;5013062;28;19956;-79
2022/08/03 03:19:00;;;;;;;;;;;;;;;-145.18;100.00;46654.53;5012650;28;19921;-79
2022/08/03 03:21:26;;;;;;;;;;;;;;;-145.18;100.00;46654.53;5013136;28;19984;-79
2022/08/03 03:23:52;;;;;;;;;;;;;;;-145.18;100.00;46652.59;5012334;28;20361;-79
2022/08/03 03:26:18;;;;;;;;;;;;;;;-145.18;100.00;46650.63;5012972;28;20377;-79
2022/08/03 03:28:43;;;;;;;;;;;;;;;-145.18;100.00;46650.63;5012274;28;19968;-79
2022/08/03 03:31:09;;;;;;;;;;;;;;;-145.18;100.00;46654.53;5013000;28;20671;-79
2022/08/03 03:33:35;;;;;;;;;;;;;;;-145.18;100.00;46650.63;5012100;28;19921;-79
2022/08/03 03:36:01;;;;;;;;;;;;;;;-145.18;100.00;46654.53;5012556;28;20412;-79
2022/08/03 03:38:26;;;;;;;;;;;;;;;-145.18;100.00;46652.59;5012413;28;19917;-79
2022/08/03 03:40:52;;;;;;;;;;;;;;;-145.18;100.00;46656.50;5012474;28;19917;-80
2022/08/03 03:43:17;;;;;;;;;;;;;;;-145.18;100.00;46650.63;5012356;28;19917;-79
2022/08/03 03:45:44;;;;;;;;;;;;;;;-145.18;100.00;46656.50;5012194;28;19927;-80
2022/08/03 03:48:09;;;;;;;;;;;;;;;-145.18;100.00;46656.50;5012183;28;19949;-80
2022/08/03 03:50:36;;;;;;;;;;;;;;;-145.18;100.00;46652.59;5012297;28;19952;-80
2022/08/03 03:53:01;;;;;;;;;;;;;;;-145.18;100.00;46652.59;5011827;28;19913;-78
2022/08/03 03:55:27;;;;;;;;;;;;;;;-145.18;100.00;46650.63;5012704;28;19913;-79
2022/08/03 03:57:52;;;;;;;;;;;;;;;-145.18;100.00;46652.59;5011554;28;19921;-79
2022/08/03 04:00:18;;;;;;;;;;;;;;;-145.18;100.00;46654.53;5012405;28;19965;-79
2022/08/03 04:02:44;;;;;;;;;;;;;;;-145.18;100.00;46652.59;5011683;28;19947;-79
2022/08/03 04:11:05;;;;;;;;;;;;;;;-145.18;100.00;46656.50;4913505;29;20284;-80
2022/08/03 04:13:34;;;;;;;;;;;;;;;-145.18;100.00;46650.63;4976051;28;19913;-80
2022/08/03 04:16:00;;;;;;;;;;;;;;;-145.18;100.00;46650.63;5011851;28;20329;-79
2022/08/03 04:18:26;;;;;;;;;;;;;;;-145.18;100.00;46654.53;5011731;28;19980;-79
2022/08/03 04:20:52;;;;;;;;;;;;;;;-145.18;100.00;46652.59;5011812;28;19939;-79
2022/08/03 04:23:20;;;;;;;;;;;;;;;-145.18;100.00;46652.59;5011891;28;19913;-81
2022/08/03 04:25:47;;;;;;;;;;;;;;;-145.18;100.00;46642.81;5011893;28;19914;-81
2022/08/03 04:28:14;;;;;;;;;;;;;;;-145.18;100.00;46652.59;5011722;28;19920;-82
2022/08/03 04:30:46;;;;;;;;;;;;;;;-145.18;100.00;46652.59;5011641;28;19957;-83
2022/08/03 04:33:12;;;;;;;;;;;;;;;-145.18;100.00;46652.59;5011645;28;20336;-82
2022/08/03 04:35:37;;;;;;;;;;;;;;;-145.18;100.00;46656.50;5011817;28;19917;-80
2022/08/03 04:38:05;;;;;;;;;;;;;;;-145.18;100.00;46654.53;5011214;28;19918;-80
2022/08/03 04:40:35;;;;;;;;;;;;;;;-145.18;100.00;46652.59;5011558;28;19921;-80
2022/08/03 04:43:01;;;;;;;;;;;;;;;-145.18;100.00;46652.59;4993246;28;19920;-80
2022/08/03 04:45:27;;;;;;;;;;;;;;;-145.18;100.00;46652.59;5011622;28;19917;-79
2022/08/03 04:47:53;;;;;;;;;;;;;;;-145.18;100.00;46658.44;5010863;28;19920;-79
2022/08/03 04:50:18;;;;;;;;;;;;;;;-145.18;100.00;46652.59;5011604;28;19917;-79
2022/08/03 04:52:44;;;;;;;;;;;;;;;-145.18;100.00;46652.59;5011059;28;19928;-79
2022/08/03 04:55:09;;;;;;;;;;;;;;;-145.18;100.00;46656.50;5011706;28;19913;-79
2022/08/03 04:57:34;;;;;;;;;;;;;;;-145.18;100.00;46650.63;5010671;28;20448;-79
2022/08/03 04:59:59;;;;;;;;;;;;;;;-145.18;100.00;46656.50;5011303;28;19913;-79
2022/08/03 05:02:25;;;;;;;;;;;;;;;-145.18;100.00;46656.50;5010892;28;19925;-79
2022/08/03 05:04:51;;;;;;;;;;;;;;;-145.18;100.00;46656.50;5010992;28;19925;-79
2022/08/03 05:07:17;;;;;;;;;;;;;;;-145.18;100.00;46652.59;5011202;28;19987;-80
2022/08/03 05:09:42;;;;;;;;;;;;;;;-145.18;100.00;46642.81;5008625;28;19919;-80
2022/08/03 05:12:08;;;;;;;;;;;;;;;-145.18;100.00;46652.59;5001509;28;20382;-80
2022/08/03 05:14:35;;;;;;;;;;;;;;;-145.18;100.00;46638.91;5000797;28;19976;-80
2022/08/03 05:17:01;;;;;;;;;;;;;;;-145.18;100.00;46642.81;4991336;28;19914;-80
2022/08/03 05:19:26;;;;;;;;;;;;;;;-145.18;100.00;46640.88;4991410;28;20381;-81
2022/08/03 05:21:51;;;;;;;;;;;;;;;-145.18;100.00;46650.63;4990873;28;20345;-80
2022/08/03 05:24:16;;;;;;;;;;;;;;;-145.18;100.00;46640.88;4991328;28;20275;-80
2022/08/03 05:26:42;;;;;;;;;;;;;;;-145.18;100.00;46640.88;4991682;28;19922;-80
2022/08/03 05:29:07;;;;;;;;;;;;;;;-145.18;100.00;46638.91;4991415;28;19921;-81
2022/08/03 05:31:32;;;;;;;;;;;;;;;-145.18;100.00;46640.88;4991045;28;19921;-78
2022/08/03 05:33:57;;;;;;;;;;;;;;;-145.18;100.00;46636.94;4990908;28;19918;-79
2022/08/03 05:36:23;;;;;;;;;;;;;;;-145.18;100.00;46642.81;4996280;28;20349;-79
2022/08/03 05:38:48;;;;;;;;;;;;;;;-145.18;100.00;46638.91;5010300;28;19925;-78
2022/08/03 05:41:13;;;;;;;;;;;;;;;-145.18;100.00;46638.91;5009294;28;20018;-77
2022/08/03 05:43:38;;;;;;;;;;;;;;;-145.18;100.00;46638.91;5014582;28;19964;-78
2022/08/03 05:46:04;;;;;;;;;;;;;;;-145.18;100.00;46652.59;5014623;28;20276;-78
2022/08/03 05:48:29;;;;;;;;;;;;;;;-145.18;100.00;46652.59;5013395;28;19913;-78
2022/08/03 05:50:54;;;;;;;;;;;;;;;-145.18;100.00;46640.88;5006035;28;19943;-78
2022/08/03 05:53:19;;;;;;;;;;;;;;;-145.18;100.00;46642.81;4994560;28;20068;-78
2022/08/03 05:55:45;;;;;;;;;;;;;;;-145.18;100.00;46640.88;4994390;28;19968;-78
2022/08/03 05:58:10;;;;;;;;;;;;;;;-145.18;100.00;46650.63;4994600;28;20846;-78
2022/08/03 06:00:35;;;;;;;;;;;;;;;-145.18;100.00;46650.63;4994763;28;20351;-78
2022/08/03 06:03:01;;;;;;;;;;;;;;;-145.18;100.00;46654.53;4994025;28;20358;-78
2022/08/03 06:05:27;;;;;;;;;;;;;;;-145.18;100.00;46654.53;5008906;28;20348;-78
2022/08/03 06:07:52;;;;;;;;;;;;;;;-145.18;100.00;46656.50;5008091;28;19929;-78
2022/08/03 06:10:17;;;;;;;;;;;;;;;-145.18;100.00;46656.50;5013199;28;20011;-77
2022/08/03 06:12:46;;;;;;;;;;;;;;;-145.18;100.00;46656.50;4997844;28;20020;-78
2022/08/03 06:15:11;;;;;;;;;;;;;;;-145.18;100.00;46658.44;5013888;28;19917;-77
2022/08/03 06:17:43;;;;;;;;;;;;;;;-145.18;100.00;46623.28;5009901;28;20696;-78
2022/08/03 06:20:09;;;;;;;;;;;;;;;-145.18;100.00;46660.41;4996460;28;19913;-79
2022/08/03 06:22:34;;;;;;;;;;;;;;;-145.18;100.00;46625.22;5010881;28;19925;-79
2022/08/03 06:24:59;;;;;;;;;;;;;;;-145.18;100.00;46623.28;4993841;28;19918;-78
2022/08/03 06:27:25;;;;;;;;;;;;;;;-145.18;100.00;46623.28;5011912;28;19929;-79
2022/08/03 06:29:50;;;;;;;;;;;;;;;-145.18;100.00;46627.19;5013477;28;19924;-74
2022/08/03 06:32:16;;;;;;;;;;;;;;;-145.18;100.00;46631.09;5012443;28;20000;-74
2022/08/03 06:34:41;;;;;;;;;;;;;;;-145.18;100.00;46625.22;4995523;28;20036;-73
2022/08/03 06:37:06;;;;;;;;;;;;;;;-145.18;100.00;46627.19;5013499;28;19921;-78
2022/08/03 06:39:32;;;;;;;;;;;;;;;-145.18;100.00;46629.13;5013087;28;19921;-79
2022/08/03 06:41:57;;;;;;;;;;;;;;;-145.18;100.00;46633.06;5013086;28;20413;-75
2022/08/03 06:44:22;;;;;;;;;;;;;;;-145.18;100.00;46627.19;5012816;28;19918;-77
2022/08/03 06:46:48;;;;;;;;;;;;;;;-145.18;100.00;46623.28;5013309;28;19948;-77
2022/08/03 06:49:13;;;;;;;;;;;;;;;-145.18;100.00;46629.13;5013114;28;19921;-77
2022/08/03 06:51:38;;;;;;;;;;;;;;;-145.18;100.00;46629.13;5012813;28;19925;-78
2022/08/03 06:54:03;;;;;;;;;;;;;;;-145.18;100.00;46631.09;5012440;28;20422;-74
2022/08/03 06:56:29;;;;;;;;;;;;;;;-145.18;100.00;46635.00;5013016;28;19917;-74
2022/08/03 06:58:54;;;;;;;;;;;;;;;-145.18;100.00;46629.13;5011114;28;19921;-74
2022/08/03 07:01:19;;;;;;;;;;;;;;;-145.18;100.00;46625.22;5012791;28;19928;-74
2022/08/03 07:03:44;;;;;;;;;;;;;;;-145.18;100.00;46633.06;5012317;28;19926;-73
2022/08/03 07:06:10;;;;;;;;;;;;;;;-145.18;100.00;46633.06;5012788;28;19921;-75
2022/08/03 07:08:36;;;;;;;;;;;;;;;-145.18;100.00;46633.06;5012103;28;20017;-75
2022/08/03 07:11:01;;;;;;;;;;;;;;;-145.18;100.00;46631.09;5010642;28;20007;-77
2022/08/03 07:13:26;;;;;;;;;;;;;;;-145.18;100.00;46633.06;5014761;28;19927;-76
2022/08/03 07:15:52;;;;;;;;;;;;;;;-145.18;100.00;46633.06;5012547;28;19963;-80
2022/08/03 07:18:17;;;;;;;;;;;;;;;-145.18;100.00;46627.19;5001587;28;19939;-78
2022/08/03 07:20:42;;;;;;;;;;;;;;;-145.18;100.00;46631.09;5013014;28;19984;-78
2022/08/03 07:23:08;;;;;;;;;;;;;;;-145.18;100.00;46631.09;5011581;28;19968;-76
2022/08/03 07:25:34;;;;;;;;;;;;;;;-145.18;100.00;46629.13;5011807;28;20358;-76
2022/08/03 07:27:59;;;;;;;;;;;;;;;-145.18;100.00;46633.06;5012138;28;20015;-75
2022/08/03 07:30:24;;;;;;;;;;;;;;;-145.18;100.00;46636.94;5012450;28;19941;-75
2022/08/03 07:32:49;;;;;;;;;;;;;;;-145.18;100.00;46636.94;5010568;28;19921;-76
2022/08/03 07:35:15;;;;;;;;;;;;;;;-145.18;100.00;46633.06;5012138;28;20389;-76
2022/08/03 07:37:40;;;;;;;;;;;;;;;-145.18;100.00;46640.88;5012299;28;20105;-76
2022/08/03 07:40:05;;;;;;;;;;;;;;;-145.18;100.00;46633.06;5012146;28;20008;-76
2022/08/03 07:42:31;;;;;;;;;;;;;;;-145.18;100.00;46640.88;5012349;28;19924;-76
2022/08/03 07:44:56;;;;;;;;;;;;;;;-145.18;100.00;46642.81;5011787;28;19919;-76
2022/08/03 07:47:23;;;;;;;;;;;;;;;-145.18;100.00;46636.94;5012261;28;19925;-76
2022/08/03 07:49:48;;;;;;;;;;;;;;;-145.18;100.00;46638.91;5006814;28;19925;-75
2022/08/03 07:54:57;;;;;;;;;;;;;;;-145.18;100.00;46642.81;4992297;28;20329;-76
2022/08/03 07:57:22;;;;;;;;;;;;;;;-145.18;100.00;46636.94;4992673;28;19922;-78
2022/08/03 07:59:48;;;;;;;;;;;;;;;-145.18;100.00;46642.81;5000085;28;19922;-82
2022/08/03 08:02:13;;;;;;;;;;;;;;;-145.18;100.00;46638.91;5012048;28;19929;-81
2022/08/03 08:04:38;;;;;;;;;;;;;;;-145.18;100.00;46644.78;5011021;28;19922;-80
2022/08/03 08:07:04;;;;;;;;;;;;;;;-145.18;100.00;46648.69;5011760;28;19918;-78
2022/08/03 08:09:29;;;;;;;;;;;;;;;-145.18;100.00;46642.81;5011462;28;20384;-78
2022/08/03 08:11:54;;;;;;;;;;;;;;;-145.18;100.00;46648.69;5001756;28;19922;-76
2022/08/03 08:14:20;;;;;;;;;;;;;;;-145.18;100.00;46650.63;4991599;28;19924;-77
2022/08/03 08:16:46;;;;;;;;;;;;;;;-145.18;100.00;46648.69;4992052;28;20389;-80
2022/08/03 08:19:13;;;;;;;;;;;;;;;-145.18;100.00;46648.69;4991905;28;20015;-79
2022/08/03 08:21:38;;;;;;;;;;;;;;;-145.18;100.00;46654.53;4992056;28;19918;-80
2022/08/03 08:24:04;;;;;;;;;;;;;;;-145.18;100.00;46650.63;4991489;28;20300;-80
2022/08/03 08:26:29;;;;;;;;;;;;;;;-145.18;100.00;46650.63;4991724;28;19925;-79
2022/08/03 08:28:54;;;;;;;;;;;;;;;-145.18;100.00;46650.63;4992494;28;20471;-80
2022/08/03 08:31:20;;;;;;;;;;;;;;;-145.18;100.00;46648.69;5011660;28;20412;-80
2022/08/03 08:33:45;;;;;;;;;;;;;;;-145.18;100.00;46656.50;5011195;28;19999;-80
2022/08/03 08:36:10;;;;;;;;;;;;;;;-145.18;100.00;46660.41;5011306;28;19922;-80
2022/08/03 08:38:35;;;;;;;;;;;;;;;-145.18;100.00;46662.34;5011123;28;19948;-80
2022/08/03 08:41:01;;;;;;;;;;;;;;;-145.18;100.00;46658.44;5010979;28;19917;-79
2022/08/03 08:43:27;;;;;;;;;;;;;;;-145.18;100.00;46666.25;5010758;28;19988;-80
2022/08/03 08:45:52;;;;;;;;;;;;;;;-145.18;100.00;46666.25;5007989;28;19940;-80
2022/08/03 08:48:23;;;;;;;;;;;;;;;-145.18;100.00;46660.41;5010601;28;20016;-80
2022/08/03 08:50:51;;;;;;;;;;;;;;;-145.18;100.00;46660.41;5010557;28;19928;-79
2022/08/03 08:53:17;;;;;;;;;;;;;;;-145.18;100.00;46662.34;5010482;28;19960;-79
2022/08/03 08:55:45;;;;;;;;;;;;;;;-145.18;100.00;46660.41;5011023;28;19957;-80
2022/08/03 08:58:11;;;;;;;;;;;;;;;-145.18;100.00;46662.34;5010555;28;20440;-79
2022/08/03 09:00:37;;;;;;;;;;;;;;;-145.18;100.00;46664.31;4996070;28;19917;-79
2022/08/03 09:03:02;;;;;;;;;;;;;;;-145.18;100.00;46658.44;4990242;28;19981;-79
2022/08/03 09:05:31;;;;;;;;;;;;;;;-145.18;100.00;46660.41;4990807;28;19914;-79
2022/08/03 09:07:57;;;;;;;;;;;;;;;-145.18;100.00;46656.50;4990321;28;20350;-80
2022/08/03 09:10:22;;;;;;;;;;;;;;;-145.18;100.00;46658.44;4990025;28;19961;-80
2022/08/03 09:12:49;;;;;;;;;;;;;;;-145.18;100.00;46662.34;4994369;28;20023;-79
2022/08/03 09:15:20;;;;;;;;;;;;;;;-145.18;100.00;46621.31;5007133;28;19921;-79
2022/08/03 09:17:46;;;;;;;;;;;;;;;-145.18;100.00;46539.28;5010406;28;20348;-80
2022/08/03 09:20:11;;;;;;;;;;;;;;;-145.18;100.00;46531.47;5009700;28;20016;-79
2022/08/03 09:22:50;;;;;;;;;;;;;;;-145.18;100.00;46531.47;5010662;28;19913;-80
2022/08/03 09:25:15;;;;;;;;;;;;;;;-145.18;100.00;46533.44;5010299;28;20436;-83
2022/08/03 09:27:44;;;;;;;;;;;;;;;-145.18;100.00;46535.38;5011278;28;19917;-80
2022/08/03 09:30:14;;;;;;;;;;;;;;;-145.18;100.00;46535.38;5010392;28;19917;-81
2022/08/03 09:32:40;;;;;;;;;;;;;;;-145.18;100.00;46539.28;5010220;28;20373;-81
2022/08/03 09:35:05;;;;;;;;;;;;;;;-145.18;100.00;46543.19;5010770;28;19924;-81
2022/08/03 09:37:30;;;;;;;;;;;;;;;-145.18;100.00;46537.34;5010840;28;19909;-80
2022/08/03 09:39:55;;;;;;;;;;;;;;;-145.18;100.00;46535.38;4992359;28;19917;-80
2022/08/03 09:42:22;;;;;;;;;;;;;;;-145.18;100.00;46537.34;5004753;28;19928;-80
2022/08/03 09:44:48;;;;;;;;;;;;;;;-145.18;100.00;46523.66;5005585;28;19914;-80
2022/08/03 09:47:15;;;;;;;;;;;;;;;-145.18;100.00;46533.44;5008641;28;19940;-79
2022/08/03 09:49:41;;;;;;;;;;;;;;;-145.18;100.00;46529.53;5009714;28;19906;-80
2022/08/03 09:52:14;;;;;;;;;;;;;;;-145.18;100.00;46531.47;5010150;28;19971;-80
2022/08/03 09:54:39;;;;;;;;;;;;;;;-145.18;100.00;46531.47;5009902;28;20404;-79
2022/08/03 09:57:05;;;;;;;;;;;;;;;-145.18;100.00;46531.47;5010285;28;19917;-80
2022/08/03 09:59:31;;;;;;;;;;;;;;;-145.18;100.00;46521.72;5010089;28;19924;-80
2022/08/03 10:01:58;;;;;;;;;;;;;;;-145.18;100.00;46539.28;5010030;28;19913;-80
2022/08/03 10:04:24;;;;;;;;;;;;;;;-145.18;100.00;46537.34;5009726;28;19971;-80
2022/08/03 10:07:01;;;;;;;;;;;;;;;-145.18;100.00;46541.25;5010308;28;20012;-80
2022/08/03 10:09:27;;;;;;;;;;;;;;;-145.18;100.00;46539.28;5010119;28;20008;-80
2022/08/03 10:11:52;;;;;;;;;;;;;;;-145.18;100.00;46586.16;5010150;28;20216;-80
2022/08/03 10:14:17;;;;;;;;;;;;;;;-145.18;100.00;46549.06;5009957;28;19918;-81
2022/08/03 10:16:43;;;;;;;;;;;;;;;-145.18;100.00;46510.00;4992647;28;19983;-81
2022/08/03 10:19:09;;;;;;;;;;;;;;;-145.18;100.00;46654.53;5009328;28;19928;-80
2022/08/03 10:21:36;;;;;;;;;;;;;;;-145.18;100.00;47047.19;5010387;28;19944;-80
2022/08/03 10:24:02;;;;;;;;;;;;;;;-145.18;100.00;47084.28;5009754;28;20056;-80
2022/08/03 10:26:30;;;;;;;;;;;;;;;-145.18;100.00;47078.44;5010215;28;19924;-80
2022/08/03 10:28:58;;;;;;;;;;;;;;;-145.18;100.00;47074.53;5012615;28;20389;-81
2022/08/03 10:31:23;;;;;;;;;;;;;;;-145.18;100.00;47090.16;5012899;28;20290;-81
2022/08/03 10:33:50;;;;;;;;;;;;;;;-145.18;100.00;47004.19;5010051;28;19937;-80
2022/08/03 10:36:16;;;;;;;;;;;;;;;-145.18;100.00;46996.38;5012085;28;19917;-81
2022/08/03 10:38:46;;;;;;;;;;;;;;;-145.18;100.00;46988.56;5013316;28;19920;-80
2022/08/03 10:41:12;;;;;;;;;;;;;;;-145.18;100.00;47023.72;5004354;28;19931;-80
2022/08/03 10:43:47;;;;;;;;;;;;;;;-145.18;100.00;46887.00;5012663;28;19937;-80
2022/08/03 10:46:14;;;;;;;;;;;;;;;-145.18;100.00;46592.03;5011831;28;19922;-80
2022/08/03 10:48:39;;;;;;;;;;;;;;;-145.18;100.00;46691.66;5012127;28;20459;-81
2022/08/03 10:51:06;;;;;;;;;;;;;;;-145.18;100.00;46494.38;5011823;28;19917;-80
2022/08/03 10:53:39;;;;;;;;;;;;;;;-145.18;100.00;46498.28;5012734;28;19961;-80
2022/08/03 10:58:52;;;;;;;;;;;;;;;-145.18;100.00;46681.88;5013181;28;20007;-80
2022/08/03 11:01:17;;;;;;;;;;;;;;;-145.18;100.00;46869.41;4992809;28;20064;-80
2022/08/03 11:03:52;;;;;;;;;;;;;;;-145.18;100.00;46994.44;4975480;28;20448;-80
2022/08/03 11:06:21;;;;;;;;;;;;;;;-145.18;100.00;46947.53;4993384;28;19913;-80
2022/08/03 11:08:47;;;;;;;;;;;;;;;-145.18;100.00;46951.44;4992872;28;19924;-80
2022/08/03 11:11:16;;;;;;;;;;;;;;;-145.18;100.00;46933.88;4984642;28;19926;-81
2022/08/03 11:13:55;;;;;;;;;;;;;;;-145.18;100.00;46931.91;5012003;28;19921;-81
2022/08/03 11:16:22;;;;;;;;;;;;;;;-145.18;100.00;46920.19;5010551;28;20004;-80
2022/08/03 11:18:58;;;;;;;;;;;;;;;-145.18;100.00;46971.00;5009691;28;20520;-80
2022/08/03 11:21:41;;;;;;;;;;;;;;;-145.18;100.00;46969.03;5011449;28;19921;-80
2022/08/03 11:24:07;;;;;;;;;;;;;;;-145.18;100.00;46922.16;5012440;28;19964;-80
2022/08/03 11:26:32;;;;;;;;;;;;;;;-145.18;100.00;46928.00;5012597;28;19972;-80
2022/08/03 11:29:17;;;;;;;;;;;;;;;-145.18;100.00;46953.41;5012417;28;19917;-80
2022/08/03 11:31:44;;;;;;;;;;;;;;;-145.18;100.00;46926.06;5011966;28;19921;-81
2022/08/03 11:34:10;;;;;;;;;;;;;;;-145.18;100.00;46947.53;5011932;28;20428;-80
2022/08/03 11:36:54;;;;;;;;;;;;;;;-145.18;100.00;46929.97;5012813;28;19925;-80
2022/08/03 11:39:19;;;;;;;;;;;;;;;-145.18;100.00;46929.97;5011221;28;19913;-80
2022/08/03 11:41:44;;;;;;;;;;;;;;;-145.18;100.00;46922.16;5012586;28;20362;-80
2022/08/03 11:44:29;;;;;;;;;;;;;;;-145.18;100.00;46922.16;5011862;28;20656;-80
2022/08/03 11:46:55;;;;;;;;;;;;;;;-145.18;100.00;46922.16;5012013;28;20305;-81
2022/08/03 11:49:22;;;;;;;;;;;;;;;-145.18;100.00;46922.16;5012118;28;19922;-80
2022/08/03 11:51:52;;;;;;;;;;;;;;;-145.18;100.00;46929.97;5012694;28;19913;-80
2022/08/03 11:54:18;;;;;;;;;;;;;;;-145.18;100.00;46967.09;5011752;28;19935;-79
2022/08/03 11:56:48;;;;;;;;;;;;;;;-145.18;100.00;46935.81;5011662;28;20004;-79
2022/08/03 11:59:13;;;;;;;;;;;;;;;-145.18;100.00;46933.88;5011402;28;19952;-80
2022/08/03 12:01:39;;;;;;;;;;;;;;;-145.18;100.00;46918.25;5011882;28;20006;-79
2022/08/03 12:04:05;;;;;;;;;;;;;;;-145.18;100.00;46898.72;5011221;28;19992;-80
2022/08/03 12:06:52;;;;;;;;;;;;;;;-145.18;100.00;46902.63;5012345;28;20404;-79
2022/08/03 12:09:16;;;;;;;;;;;;;;;-145.18;100.00;46881.13;5010480;28;19925;-79
2022/08/03 12:11:41;;;;;;;;;;;;;;;-145.18;100.00;46888.94;5010993;28;20025;-80
2022/08/03 12:14:06;;;;;;;;;;;;;;;-145.18;100.00;46900.66;5011579;28;20322;-79
2022/08/03 12:16:31;;;;;;;;;;;;;;;-145.18;100.00;46904.56;5011957;28;19929;-78
2022/08/03 12:19:02;;;;;;;;;;;;;;;-145.18;100.00;46894.81;5011388;28;20020;-79
2022/08/03 12:21:27;;;;;;;;;;;;;;;-145.18;100.00;46890.91;5011260;28;19917;-78
2022/08/03 12:23:58;;;;;;;;;;;;;;;-145.18;100.00;46902.63;5010846;28;20368;-79
2022/08/03 12:26:24;;;;;;;;;;;;;;;-145.18;100.00;46914.34;5010788;28;19976;-79
2022/08/03 12:28:50;;;;;;;;;;;;;;;-145.18;100.00;46922.16;5011344;28;19921;-78
2022/08/03 12:31:15;;;;;;;;;;;;;;;-145.18;100.00;46939.72;5011342;28;19925;-78